createdAt,value
2023-04-09T00:01:06.961Z,40.20
2023-04-09T00:03:36.437Z,39.20
2023-04-09T00:06:05.547Z,42.88
2023-04-09T00:08:33.742Z,43.10
2023-04-09T00:11:02.004Z,38.78
2023-04-09T00:16:01.143Z,37.10
2023-04-09T00:18:29.179Z,41.17
2023-04-09T00:20:57.244Z,46.50
2023-04-09T00:23:25.505Z,40.20
2023-04-09T00:25:53.733Z,37.95
2023-04-09T00:28:21.753Z,41.88
2023-04-09T00:30:49.848Z,41.58
2023-04-09T00:33:17.971Z,41.80
2023-04-09T00:35:46.692Z,45.95
2023-04-09T00:38:14.787Z,42.47
2023-04-09T00:40:42.954Z,41.63
2023-04-09T00:43:12.083Z,37.25
2023-04-09T00:45:40.471Z,37.47
2023-04-09T00:48:08.811Z,39.22
2023-04-09T00:50:37.224Z,40.42
2023-04-09T00:53:06.572Z,36.58
2023-04-09T00:55:36.256Z,40.10
2023-04-09T00:58:04.459Z,37.83
2023-04-09T01:00:32.713Z,37.35
2023-04-09T01:03:02.256Z,36.25
2023-04-09T01:05:41.681Z,41.72
2023-04-09T01:08:29.866Z,38.00
2023-04-09T01:11:07.181Z,39.00
2023-04-09T01:13:59.781Z,37.95
2023-04-09T01:16:32.629Z,41.00
2023-04-09T01:19:10.499Z,33.95
2023-04-09T01:21:40.972Z,38.55
2023-04-09T01:24:28.596Z,38.58
2023-04-09T01:27:05.293Z,36.75
2023-04-09T01:29:46.289Z,34.65
2023-04-09T01:32:17.243Z,34.55
2023-04-09T01:34:48.318Z,36.53
2023-04-09T01:37:17.207Z,34.78
2023-04-09T01:39:46.296Z,37.33
2023-04-09T01:42:17.850Z,37.47
2023-04-09T01:44:46.699Z,37.58
2023-04-09T01:47:14.765Z,40.38
2023-04-09T01:49:43.859Z,40.22
2023-04-09T01:52:13.011Z,39.38
2023-04-09T01:54:42.426Z,34.45
2023-04-09T01:57:10.595Z,39.40
2023-04-09T01:59:38.498Z,41.08
2023-04-09T02:02:32.018Z,39.00
2023-04-09T02:05:03.694Z,41.22
2023-04-09T02:07:50.294Z,36.92
2023-04-09T02:10:22.256Z,36.65
2023-04-09T02:12:52.618Z,40.42
2023-04-09T02:15:23.118Z,35.67
2023-04-09T02:17:51.851Z,37.70
2023-04-09T02:20:20.221Z,35.58
2023-04-09T02:22:48.594Z,38.13
2023-04-09T02:25:16.994Z,34.97
2023-04-09T02:27:44.961Z,34.60
2023-04-09T02:30:13.110Z,34.83
2023-04-09T02:32:41.013Z,34.78
2023-04-09T02:35:09.227Z,36.50
2023-04-09T02:37:37.117Z,34.40
2023-04-09T02:40:05.329Z,35.08
2023-04-09T02:42:39.048Z,34.90
2023-04-09T02:45:08.665Z,36.58
2023-04-09T02:47:36.795Z,36.95
2023-04-09T02:50:06.009Z,32.90
2023-04-09T02:52:36.187Z,37.83
2023-04-09T02:55:04.702Z,34.85
2023-04-09T02:57:33.761Z,33.83
2023-04-09T03:00:01.822Z,35.75
2023-04-09T03:02:30.272Z,36.03
2023-04-09T03:04:58.288Z,33.50
2023-04-09T03:07:26.265Z,32.92
2023-04-09T03:09:54.337Z,35.33
2023-04-09T03:12:22.302Z,34.03
2023-04-09T03:14:50.484Z,35.55
2023-04-09T03:17:18.420Z,34.38
2023-04-09T03:19:47.401Z,32.15
2023-04-09T03:22:16.914Z,33.30
2023-04-09T03:24:44.930Z,31.25
2023-04-09T03:27:12.930Z,36.75
2023-04-09T03:29:40.955Z,32.60
2023-04-09T03:32:09.044Z,34.67
2023-04-09T03:34:37.155Z,35.75
2023-04-09T03:37:05.970Z,34.15
2023-04-09T03:39:34.426Z,31.77
2023-04-09T03:42:02.463Z,31.73
2023-04-09T03:44:36.874Z,26.80
2023-04-09T03:47:09.402Z,28.27
2023-04-09T03:49:39.165Z,29.02
2023-04-09T03:52:24.518Z,27.58
2023-04-09T03:55:05.014Z,26.70
2023-04-09T03:57:32.986Z,31.70
2023-04-09T04:00:01.024Z,28.73
2023-04-09T04:02:35.902Z,26.48
2023-04-09T04:05:08.372Z,30.45
2023-04-09T04:07:44.154Z,29.30
2023-04-09T04:10:16.551Z,27.80
2023-04-09T04:12:47.215Z,30.60
2023-04-09T04:15:31.806Z,30.48
2023-04-09T04:18:00.985Z,29.30
2023-04-09T04:20:48.259Z,29.35
2023-04-09T04:23:16.293Z,32.42
2023-04-09T04:25:53.612Z,27.23
2023-04-09T04:28:28.847Z,31.40
2023-04-09T04:30:57.133Z,27.23
2023-04-09T04:33:25.379Z,26.08
2023-04-09T04:36:12.213Z,29.15
2023-04-09T04:38:43.952Z,31.05
2023-04-09T04:41:20.927Z,29.17
2023-04-09T04:43:58.282Z,26.25
2023-04-09T04:46:26.896Z,30.00
2023-04-09T04:48:55.439Z,29.95
2023-04-09T04:51:24.363Z,26.95
2023-04-09T04:54:03.541Z,27.48
2023-04-09T04:56:31.986Z,27.30
2023-04-09T04:59:05.357Z,28.00
2023-04-09T05:01:45.483Z,28.80
2023-04-09T05:04:14.840Z,26.33
2023-04-09T05:06:42.969Z,29.58
2023-04-09T05:09:16.084Z,28.40
2023-04-09T05:11:57.270Z,31.70
2023-04-09T05:14:26.324Z,29.23
2023-04-09T05:16:54.435Z,30.33
2023-04-09T05:19:26.653Z,29.35
2023-04-09T05:24:29.560Z,25.42
2023-04-09T05:26:57.582Z,29.88
2023-04-09T05:29:26.376Z,28.23
2023-04-09T05:31:54.592Z,32.00
2023-04-09T05:34:30.804Z,30.02
2023-04-09T05:36:59.855Z,31.30
2023-04-09T05:39:28.271Z,24.67
2023-04-09T05:41:56.789Z,33.97
2023-04-09T05:44:54.197Z,29.10
2023-04-09T05:47:23.084Z,28.90
2023-04-09T05:50:17.744Z,27.63
2023-04-09T05:52:45.914Z,29.50
2023-04-09T05:55:15.989Z,28.15
2023-04-09T05:57:48.613Z,29.50
2023-04-09T06:00:18.279Z,26.17
2023-04-09T06:02:47.003Z,31.95
2023-04-09T06:05:15.151Z,29.42
2023-04-09T06:07:43.526Z,30.30
2023-04-09T06:10:11.615Z,28.95
2023-04-09T06:12:40.582Z,30.73
2023-04-09T06:15:09.307Z,25.33
2023-04-09T06:17:37.439Z,25.15
2023-04-09T06:20:08.350Z,26.50
2023-04-09T06:22:36.540Z,27.80
2023-04-09T06:25:05.005Z,27.88
2023-04-09T06:27:33.049Z,26.75
2023-04-09T06:30:01.049Z,23.55
2023-04-09T06:32:29.746Z,26.55
2023-04-09T06:34:58.859Z,24.52
2023-04-09T06:37:26.728Z,24.83
2023-04-09T06:40:00.973Z,25.00
2023-04-09T06:45:09.005Z,26.05
2023-04-09T06:47:37.152Z,27.90
2023-04-09T06:50:05.623Z,20.30
2023-04-09T06:52:33.681Z,28.23
2023-04-09T06:55:01.756Z,26.90
2023-04-09T06:57:29.734Z,26.45
2023-04-09T06:59:57.833Z,25.30
2023-04-09T07:02:26.653Z,23.85
2023-04-09T07:04:54.769Z,27.42
2023-04-09T07:07:25.390Z,25.90
2023-04-09T07:09:54.129Z,26.58
2023-04-09T07:12:32.836Z,25.95
2023-04-09T07:15:06.561Z,25.77
2023-04-09T07:17:35.356Z,26.70
2023-04-09T07:20:04.138Z,24.50
2023-04-09T07:22:32.420Z,25.30
2023-04-09T07:25:00.627Z,23.45
2023-04-09T07:27:30.543Z,26.60
2023-04-09T07:29:59.940Z,26.35
2023-04-09T07:32:29.047Z,26.13
2023-04-09T07:34:59.558Z,29.27
2023-04-09T07:37:27.740Z,26.23
2023-04-09T07:39:55.684Z,25.60
2023-04-09T07:42:27.662Z,25.92
2023-04-09T07:44:58.390Z,22.80
2023-04-09T07:47:27.581Z,25.73
2023-04-09T07:49:55.921Z,26.73
2023-04-09T07:52:24.357Z,27.83
2023-04-09T07:54:54.297Z,23.70
2023-04-09T07:57:23.142Z,27.35
2023-04-09T07:59:52.476Z,27.48
2023-04-09T08:02:24.852Z,28.23
2023-04-09T08:04:52.970Z,29.85
2023-04-09T08:07:21.331Z,26.20
2023-04-09T08:09:50.308Z,26.77
2023-04-09T08:12:20.503Z,27.02
2023-04-09T08:14:49.559Z,25.63
2023-04-09T08:17:20.751Z,27.88
2023-04-09T08:19:49.932Z,28.17
2023-04-09T08:22:17.938Z,26.73
2023-04-09T08:24:51.040Z,28.70
2023-04-09T08:27:20.872Z,28.02
2023-04-09T08:29:52.822Z,27.25
2023-04-09T08:32:24.813Z,27.38
2023-04-09T08:34:54.768Z,29.42
2023-04-09T08:37:25.383Z,26.90
2023-04-09T08:39:53.495Z,28.23
2023-04-09T08:42:24.150Z,28.52
2023-04-09T08:44:52.580Z,28.85
2023-04-09T08:47:21.696Z,27.92
2023-04-09T08:49:51.080Z,25.02
2023-04-09T08:52:22.077Z,23.70
2023-04-09T08:54:52.026Z,25.77
2023-04-09T08:57:20.207Z,22.48
2023-04-09T08:59:48.114Z,25.27
2023-04-09T09:02:16.193Z,23.33
2023-04-09T09:04:48.708Z,25.83
2023-04-09T09:07:17.333Z,21.05
2023-04-09T09:09:56.336Z,21.48
2023-04-09T09:12:32.035Z,22.27
2023-04-09T09:15:00.290Z,20.20
2023-04-09T09:17:28.402Z,23.30
2023-04-09T09:19:56.949Z,19.67
2023-04-09T09:22:25.955Z,20.25
2023-04-09T09:24:54.467Z,20.50
2023-04-09T09:27:37.147Z,21.63
2023-04-09T09:30:06.112Z,19.75
2023-04-09T09:32:34.546Z,22.70
2023-04-09T09:35:07.259Z,21.70
2023-04-09T09:37:35.457Z,20.80
2023-04-09T09:40:04.391Z,19.60
2023-04-09T09:42:33.408Z,19.85
2023-04-09T09:45:02.236Z,16.65
2023-04-09T09:47:31.525Z,19.30
2023-04-09T09:50:00.681Z,20.55
2023-04-09T09:52:30.847Z,19.35
2023-04-09T09:55:04.449Z,20.05
2023-04-09T09:57:35.298Z,17.83
2023-04-09T10:00:04.794Z,20.52
2023-04-09T10:02:59.819Z,23.10
2023-04-09T10:05:31.462Z,19.50
2023-04-09T10:08:01.800Z,18.77
2023-04-09T10:10:31.293Z,20.23
2023-04-09T10:12:59.875Z,19.77
2023-04-09T10:15:33.050Z,22.08
2023-04-09T10:18:01.984Z,19.88
2023-04-09T10:20:36.646Z,19.25
2023-04-09T10:23:11.714Z,21.40
2023-04-09T10:25:40.658Z,18.63
2023-04-09T10:28:17.489Z,19.40
2023-04-09T10:30:46.407Z,17.25
2023-04-09T10:33:27.168Z,17.35
2023-04-09T10:36:00.086Z,16.63
2023-04-09T10:38:36.464Z,18.98
2023-04-09T10:41:28.768Z,17.40
2023-04-09T10:43:58.530Z,18.38
2023-04-09T10:46:30.778Z,15.73
2023-04-09T10:49:38.328Z,16.45
2023-04-09T10:52:12.632Z,15.38
2023-04-09T10:54:46.745Z,16.83
2023-04-09T10:57:26.636Z,15.02
2023-04-09T10:59:57.125Z,17.10
2023-04-09T11:02:37.618Z,13.30
2023-04-09T11:08:18.619Z,15.07
2023-04-09T11:10:51.916Z,14.32
2023-04-09T11:13:22.436Z,17.10
2023-04-09T11:15:51.176Z,15.30
2023-04-09T11:18:25.248Z,17.00
2023-04-09T11:21:01.782Z,13.40
2023-04-09T11:23:31.377Z,14.10
2023-04-09T11:25:59.947Z,15.55
2023-04-09T11:28:28.514Z,14.50
2023-04-09T11:30:56.526Z,14.02
2023-04-09T11:33:33.596Z,12.68
2023-04-09T11:36:02.914Z,12.25
2023-04-09T11:38:32.930Z,13.35
2023-04-09T11:46:28.892Z,14.40
2023-04-09T11:48:58.263Z,14.05
2023-04-09T11:51:28.705Z,14.40
2023-04-09T11:53:57.460Z,13.52
2023-04-09T11:56:25.910Z,13.23
2023-04-09T11:58:56.470Z,11.93
2023-04-09T12:01:25.171Z,11.05
2023-04-09T12:06:44.368Z,12.90
2023-04-09T12:09:13.963Z,12.43
2023-04-09T12:11:45.610Z,10.90
2023-04-09T12:14:18.148Z,9.18
2023-04-09T12:16:53.470Z,11.07
2023-04-09T12:19:30.175Z,12.00
2023-04-09T12:21:58.540Z,12.97
2023-04-09T12:24:28.137Z,11.60
2023-04-09T12:26:57.396Z,12.60
2023-04-09T12:29:26.866Z,11.98
2023-04-09T12:31:55.504Z,12.30
2023-04-09T12:34:24.242Z,11.68
2023-04-09T12:36:52.561Z,10.88
2023-04-09T12:39:21.161Z,13.70
2023-04-09T12:41:49.441Z,11.60
2023-04-09T12:44:17.394Z,12.13
2023-04-09T12:46:45.656Z,12.98
2023-04-09T12:49:14.620Z,13.25
2023-04-09T12:51:43.189Z,13.50
2023-04-09T12:54:11.615Z,13.90
2023-04-09T12:56:39.977Z,12.45
2023-04-09T12:59:08.179Z,12.50
2023-04-09T13:01:37.798Z,11.80
2023-04-09T13:06:50.318Z,12.38
2023-04-09T13:09:18.736Z,14.98
2023-04-09T13:11:47.037Z,12.88
2023-04-09T13:14:18.415Z,11.77
2023-04-09T13:16:48.022Z,12.63
2023-04-09T13:19:19.232Z,12.35
2023-04-09T13:21:47.527Z,11.40
2023-04-09T13:24:15.511Z,11.38
2023-04-09T13:26:43.626Z,11.25
2023-04-09T13:29:11.650Z,12.68
2023-04-09T13:31:39.771Z,13.95
2023-04-09T13:34:08.869Z,11.82
2023-04-09T13:36:37.037Z,11.10
2023-04-09T13:39:12.672Z,13.00
2023-04-09T13:41:41.388Z,13.75
2023-04-09T13:44:09.757Z,13.13
2023-04-09T13:46:40.891Z,13.20
2023-04-09T13:49:13.902Z,13.00
2023-04-09T13:51:42.609Z,15.73
2023-04-09T13:54:11.802Z,12.38
2023-04-09T13:56:40.982Z,14.60
2023-04-09T13:59:15.097Z,12.55
2023-04-09T14:01:53.739Z,13.23
2023-04-09T14:04:22.925Z,12.55
2023-04-09T14:06:55.276Z,11.35
2023-04-09T14:09:26.329Z,12.75
2023-04-09T14:11:59.063Z,11.98
2023-04-09T14:14:28.679Z,11.23
2023-04-09T14:16:57.811Z,12.20
2023-04-09T14:19:36.558Z,12.20
2023-04-09T14:22:15.047Z,12.77
2023-04-09T14:27:36.492Z,12.25
2023-04-09T14:40:57.825Z,12.93
2023-04-09T14:43:26.882Z,11.45
2023-04-09T14:48:40.947Z,12.02
2023-04-09T14:53:58.480Z,12.55
2023-04-09T14:56:27.480Z,13.07
2023-04-09T14:58:56.775Z,10.60
2023-04-09T15:01:26.571Z,11.15
2023-04-09T15:03:56.098Z,10.93
2023-04-09T15:06:25.212Z,12.75
2023-04-09T15:09:06.618Z,12.80
2023-04-09T15:11:36.170Z,11.10
2023-04-09T15:14:05.387Z,12.93
2023-04-09T15:16:37.666Z,10.80
2023-04-09T15:19:06.328Z,14.30
2023-04-09T15:21:35.010Z,12.35
2023-04-09T15:24:15.709Z,11.15
2023-04-09T15:26:43.986Z,9.85
2023-04-09T15:29:13.391Z,9.60
2023-04-09T15:31:42.356Z,10.82
2023-04-09T15:34:11.348Z,11.02
2023-04-09T15:36:44.424Z,11.27
2023-04-09T15:39:13.835Z,9.82
2023-04-09T15:41:52.661Z,9.25
2023-04-09T15:44:24.832Z,12.07
2023-04-09T15:46:53.381Z,11.40
2023-04-09T15:49:22.422Z,10.73
2023-04-09T15:51:51.078Z,10.88
2023-04-09T15:54:21.790Z,11.20
2023-04-09T15:56:52.858Z,11.48
2023-04-09T15:59:24.136Z,9.65
2023-04-09T16:04:37.575Z,9.35
2023-04-09T16:07:06.035Z,11.00
2023-04-09T16:09:34.668Z,12.40
2023-04-09T16:12:04.349Z,10.48
2023-04-09T16:14:36.719Z,11.07
2023-04-09T16:17:05.562Z,10.57
2023-04-09T16:19:35.501Z,11.15
2023-04-09T16:22:04.172Z,11.48
2023-04-09T16:24:35.102Z,11.88
2023-04-09T16:27:03.241Z,10.98
2023-04-09T16:29:31.724Z,10.18
2023-04-09T16:34:48.237Z,9.75
2023-04-09T16:42:42.641Z,10.30
2023-04-09T16:45:11.400Z,11.98
2023-04-09T16:47:40.268Z,10.60
2023-04-09T16:50:10.743Z,11.50
2023-04-09T17:00:58.142Z,9.52
2023-04-09T17:03:26.944Z,9.45
2023-04-09T17:05:57.521Z,10.50
2023-04-09T17:08:32.160Z,9.68
2023-04-09T17:11:04.569Z,9.88
2023-04-09T17:16:20.394Z,10.05
2023-04-09T17:18:53.011Z,9.85
2023-04-09T17:21:22.467Z,10.40
2023-04-09T17:24:04.959Z,11.65
2023-04-09T17:26:35.240Z,11.10
2023-04-09T17:29:03.844Z,13.27
2023-04-09T17:31:34.914Z,11.38
2023-04-09T17:34:04.892Z,11.65
2023-04-09T17:36:43.328Z,9.88
2023-04-09T17:39:15.762Z,9.90
2023-04-09T17:41:44.480Z,10.35
2023-04-09T17:44:16.854Z,11.00
2023-04-09T17:46:46.322Z,10.60
2023-04-09T17:49:14.778Z,10.60
2023-04-09T17:51:43.616Z,12.45
2023-04-09T17:54:13.438Z,12.00
2023-04-09T17:56:42.839Z,12.10
2023-04-09T17:59:11.735Z,11.13
2023-04-09T18:01:41.415Z,10.35
2023-04-09T18:05:39.650Z,10.27
2023-04-09T18:08:26.511Z,11.13
2023-04-09T18:11:13.137Z,12.90
2023-04-09T18:13:55.313Z,12.05
2023-04-09T18:16:36.152Z,11.65
2023-04-09T18:19:13.122Z,12.77
2023-04-09T18:21:44.433Z,12.15
2023-04-09T18:24:20.704Z,13.50
2023-04-09T18:26:54.196Z,11.50
2023-04-09T18:29:23.270Z,13.45
2023-04-09T18:31:52.315Z,13.27
2023-04-09T18:34:22.339Z,15.00
2023-04-09T18:36:51.051Z,14.02
2023-04-09T18:39:19.768Z,13.32
2023-04-09T18:41:54.592Z,15.75
2023-04-09T18:44:22.870Z,15.70
2023-04-09T18:46:54.621Z,16.60
2023-04-09T18:49:22.731Z,15.95
2023-04-09T18:51:51.457Z,14.05
2023-04-09T18:54:19.565Z,13.52
2023-04-09T18:56:48.620Z,14.15
2023-04-09T18:59:17.325Z,15.52
2023-04-09T19:01:46.054Z,15.20
2023-04-09T19:04:14.247Z,15.10
2023-04-09T19:06:50.777Z,14.50
2023-04-09T19:09:19.084Z,15.40
2023-04-09T19:11:47.319Z,15.73
2023-04-09T19:14:15.970Z,15.98
2023-04-09T19:16:44.593Z,16.92
2023-04-09T19:19:12.788Z,17.42
2023-04-09T19:21:41.326Z,14.02
2023-04-09T19:24:09.555Z,15.30
2023-04-09T19:26:39.034Z,18.05
2023-04-09T19:29:07.517Z,17.33
2023-04-09T19:31:36.451Z,16.58
2023-04-09T19:34:06.133Z,19.65
2023-04-09T19:36:34.891Z,17.40
2023-04-09T19:39:03.784Z,18.13
2023-04-09T19:41:32.673Z,19.48
2023-04-09T19:44:01.671Z,21.05
2023-04-09T19:46:30.461Z,20.00
2023-04-09T19:48:58.932Z,24.85
2023-04-09T19:51:28.043Z,26.27
2023-04-09T19:53:56.872Z,26.33
2023-04-09T19:56:25.883Z,33.92
2023-04-09T19:58:54.327Z,28.67
2023-04-09T20:01:22.984Z,27.38
2023-04-09T20:03:54.156Z,24.85
2023-04-09T20:06:23.090Z,26.45
2023-04-09T20:08:51.852Z,25.25
2023-04-09T20:11:22.120Z,23.55
2023-04-09T20:13:50.663Z,25.95
2023-04-09T20:16:18.710Z,21.90
2023-04-09T20:18:47.687Z,23.05
2023-04-09T20:21:15.678Z,24.80
2023-04-09T20:23:45.510Z,21.90
2023-04-09T20:26:13.863Z,22.90
2023-04-09T20:28:42.748Z,23.45
2023-04-09T20:31:10.894Z,20.95
2023-04-09T20:33:38.904Z,21.77
2023-04-09T20:36:15.888Z,21.25
2023-04-09T20:38:44.345Z,19.70
2023-04-09T20:41:12.547Z,21.73
2023-04-09T20:43:40.724Z,19.92
2023-04-09T20:46:08.903Z,20.42
2023-04-09T20:48:37.057Z,19.30
2023-04-09T20:51:11.052Z,21.38
2023-04-09T20:53:39.505Z,22.60
2023-04-09T20:56:09.142Z,19.10
2023-04-09T20:58:37.439Z,21.48
2023-04-09T21:01:07.601Z,22.50
2023-04-09T21:03:37.596Z,24.45
2023-04-09T21:06:06.230Z,25.23
2023-04-09T21:08:34.584Z,28.70
2023-04-09T21:11:03.068Z,28.25
2023-04-09T21:13:40.400Z,29.92
2023-04-09T21:16:18.924Z,30.17
2023-04-09T21:18:47.159Z,31.75
2023-04-09T21:21:15.709Z,33.55
2023-04-09T21:23:43.745Z,32.53
2023-04-09T21:26:12.014Z,38.17
2023-04-09T21:28:40.390Z,39.33
2023-04-09T21:31:11.203Z,37.55
2023-04-09T21:33:39.417Z,34.45
2023-04-09T21:36:08.113Z,37.15
2023-04-09T21:38:36.595Z,33.78
2023-04-09T21:41:05.262Z,38.90
2023-04-09T21:43:34.755Z,38.30
2023-04-09T21:46:03.179Z,36.40
2023-04-09T21:48:31.928Z,35.45
2023-04-09T21:50:59.883Z,31.10
2023-04-09T21:53:28.551Z,28.67
2023-04-09T21:55:56.701Z,29.48
2023-04-09T21:58:24.708Z,29.27
2023-04-09T22:00:53.193Z,27.85
2023-04-09T22:03:23.598Z,26.33
2023-04-09T22:05:52.078Z,29.27
2023-04-09T22:08:23.797Z,27.27
2023-04-09T22:10:52.088Z,26.63
2023-04-09T22:13:23.093Z,26.33
2023-04-09T22:15:51.231Z,26.38
2023-04-09T22:18:19.306Z,29.67
2023-04-09T22:20:50.796Z,27.05
2023-04-09T22:23:18.729Z,27.30
2023-04-09T22:25:46.725Z,30.92
2023-04-09T22:28:14.891Z,29.05
2023-04-09T22:30:42.802Z,29.50
2023-04-09T22:33:10.732Z,28.40
2023-04-09T22:35:38.755Z,29.15
2023-04-09T22:38:07.200Z,28.23
2023-04-09T22:40:35.579Z,28.92
2023-04-09T22:43:03.793Z,30.10
2023-04-09T22:45:32.290Z,29.13
2023-04-09T22:48:00.700Z,28.83
2023-04-09T22:50:28.964Z,30.50
2023-04-09T22:52:57.010Z,31.48
2023-04-09T22:55:25.533Z,31.20
2023-04-09T22:57:54.967Z,32.50
2023-04-09T23:00:26.899Z,31.90
2023-04-09T23:02:55.706Z,31.95
2023-04-09T23:05:23.754Z,33.08
2023-04-09T23:07:52.835Z,34.40
2023-04-09T23:10:21.465Z,32.42
2023-04-09T23:12:49.584Z,34.58
2023-04-09T23:15:17.989Z,36.13
2023-04-09T23:17:46.355Z,34.22
2023-04-09T23:20:15.318Z,33.60
2023-04-09T23:22:45.770Z,35.78
2023-04-09T23:25:14.527Z,34.47
2023-04-09T23:27:42.823Z,37.05
2023-04-09T23:30:11.741Z,36.13
2023-04-09T23:32:39.722Z,34.88
2023-04-09T23:35:07.968Z,33.50
2023-04-09T23:37:36.240Z,36.10
2023-04-09T23:40:04.606Z,35.03
2023-04-09T23:42:35.559Z,36.10
2023-04-09T23:45:07.594Z,32.85
2023-04-09T23:47:37.374Z,35.55
2023-04-09T23:50:07.815Z,32.28
2023-04-09T23:52:38.953Z,35.63
2023-04-09T23:55:08.918Z,38.00
2023-04-09T23:57:37.732Z,37.55
